sensor_id;sensor_type;location;lat;lon;timestamp;temperature;humidity
4107;DHT22;21906;50.812;7.132;2022-12-18T00:01:49;-3274.80;66.30
4107;DHT22;21906;50.812;7.132;2022-12-18T00:04:22;-3274.90;66.00
4107;DHT22;21906;50.812;7.132;2022-12-18T00:06:48;-3275.00;65.90
4107;DHT22;21906;50.812;7.132;2022-12-18T00:09:15;-3274.90;65.80
4107;DHT22;21906;50.812;7.132;2022-12-18T00:11:40;-3274.80;66.00
4107;DHT22;21906;50.812;7.132;2022-12-18T00:14:06;-3274.80;66.00
4107;DHT22;21906;50.812;7.132;2022-12-18T00:16:32;-3274.80;66.10
4107;DHT22;21906;50.812;7.132;2022-12-18T00:19:01;-3274.70;66.10
4107;DHT22;21906;50.812;7.132;2022-12-18T00:21:28;-3274.80;66.20
4107;DHT22;21906;50.812;7.132;2022-12-18T00:23:54;-3274.80;66.20
4107;DHT22;21906;50.812;7.132;2022-12-18T00:26:26;-3274.80;66.10
4107;DHT22;21906;50.812;7.132;2022-12-18T00:28:53;-3274.80;66.20
4107;DHT22;21906;50.812;7.132;2022-12-18T00:31:20;-3274.80;66.10
4107;DHT22;21906;50.812;7.132;2022-12-18T00:33:47;-3274.80;65.90
4107;DHT22;21906;50.812;7.132;2022-12-18T00:36:16;-3274.80;66.00
4107;DHT22;21906;50.812;7.132;2022-12-18T00:38:43;-3274.80;66.00
4107;DHT22;21906;50.812;7.132;2022-12-18T00:41:10;-3274.80;66.00
4107;DHT22;21906;50.812;7.132;2022-12-18T00:43:37;-3274.60;66.10
4107;DHT22;21906;50.812;7.132;2022-12-18T00:46:02;-3274.60;66.70
4107;DHT22;21906;50.812;7.132;2022-12-18T00:48:28;-3274.50;66.40
4107;DHT22;21906;50.812;7.132;2022-12-18T00:50:54;-3274.60;66.90
4107;DHT22;21906;50.812;7.132;2022-12-18T00:53:20;-3274.50;66.70
4107;DHT22;21906;50.812;7.132;2022-12-18T00:55:46;-3274.60;66.60
4107;DHT22;21906;50.812;7.132;2022-12-18T00:58:13;-3274.60;66.50
4107;DHT22;21906;50.812;7.132;2022-12-18T01:00:40;-3274.70;66.20
4107;DHT22;21906;50.812;7.132;2022-12-18T01:03:06;-3274.70;66.00
4107;DHT22;21906;50.812;7.132;2022-12-18T01:05:32;-3274.70;66.10
4107;DHT22;21906;50.812;7.132;2022-12-18T01:07:58;-3274.70;66.10
4107;DHT22;21906;50.812;7.132;2022-12-18T01:10:24;-3274.70;65.90
4107;DHT22;21906;50.812;7.132;2022-12-18T01:12:50;-3274.70;65.80
4107;DHT22;21906;50.812;7.132;2022-12-18T01:15:17;-3274.70;65.60
4107;DHT22;21906;50.812;7.132;2022-12-18T01:17:43;-3274.70;65.50
4107;DHT22;21906;50.812;7.132;2022-12-18T01:20:10;-3274.70;65.40
4107;DHT22;21906;50.812;7.132;2022-12-18T01:22:37;-3274.60;65.60
4107;DHT22;21906;50.812;7.132;2022-12-18T01:25:03;-3274.60;65.90
4107;DHT22;21906;50.812;7.132;2022-12-18T01:27:29;-3274.60;65.60
4107;DHT22;21906;50.812;7.132;2022-12-18T01:29:55;-3274.60;65.70
4107;DHT22;21906;50.812;7.132;2022-12-18T01:32:21;-3274.60;65.50
4107;DHT22;21906;50.812;7.132;2022-12-18T01:34:47;-3274.60;65.50
4107;DHT22;21906;50.812;7.132;2022-12-18T01:37:13;-3274.60;65.60
4107;DHT22;21906;50.812;7.132;2022-12-18T01:39:38;-3274.60;65.40
4107;DHT22;21906;50.812;7.132;2022-12-18T01:42:11;-3274.50;65.60
4107;DHT22;21906;50.812;7.132;2022-12-18T01:44:57;-3274.50;65.70
4107;DHT22;21906;50.812;7.132;2022-12-18T01:49:55;-3274.60;65.30
4107;DHT22;21906;50.812;7.132;2022-12-18T01:52:24;-3274.60;65.30
4107;DHT22;21906;50.812;7.132;2022-12-18T01:54:51;-3274.60;65.30
4107;DHT22;21906;50.812;7.132;2022-12-18T01:57:18;-3274.60;65.20
4107;DHT22;21906;50.812;7.132;2022-12-18T01:59:46;-3274.60;65.10
4107;DHT22;21906;50.812;7.132;2022-12-18T02:02:14;-3274.60;65.20
4107;DHT22;21906;50.812;7.132;2022-12-18T02:04:42;-3274.60;65.00
4107;DHT22;21906;50.812;7.132;2022-12-18T02:07:17;-3274.60;65.00
4107;DHT22;21906;50.812;7.132;2022-12-18T02:10:00;-3274.60;64.80
4107;DHT22;21906;50.812;7.132;2022-12-18T02:15:26;-3274.60;65.00
4107;DHT22;21906;50.812;7.132;2022-12-18T02:18:08;-3274.60;64.90
4107;DHT22;21906;50.812;7.132;2022-12-18T02:21:08;-3274.50;64.90
4107;DHT22;21906;50.812;7.132;2022-12-18T02:23:49;-3274.50;65.10
4107;DHT22;21906;50.812;7.132;2022-12-18T02:26:33;-3274.50;65.10
4107;DHT22;21906;50.812;7.132;2022-12-18T02:29:15;-3274.50;64.80
4107;DHT22;21906;50.812;7.132;2022-12-18T02:31:51;-3274.40;65.10
4107;DHT22;21906;50.812;7.132;2022-12-18T02:34:18;-3274.20;65.40
4107;DHT22;21906;50.812;7.132;2022-12-18T02:36:46;-3274.20;65.80
4107;DHT22;21906;50.812;7.132;2022-12-18T02:42:36;-3274.20;66.10
4107;DHT22;21906;50.812;7.132;2022-12-18T02:45:02;-3274.30;66.10
4107;DHT22;21906;50.812;7.132;2022-12-18T02:47:31;-3274.30;66.10
4107;DHT22;21906;50.812;7.132;2022-12-18T02:50:02;-3274.20;66.40
4107;DHT22;21906;50.812;7.132;2022-12-18T02:52:34;-3274.20;66.30
4107;DHT22;21906;50.812;7.132;2022-12-18T02:55:41;-3274.20;66.30
4107;DHT22;21906;50.812;7.132;2022-12-18T03:01:01;-3274.10;66.60
4107;DHT22;21906;50.812;7.132;2022-12-18T03:03:41;-3274.20;66.60
4107;DHT22;21906;50.812;7.132;2022-12-18T03:06:12;-3274.10;66.40
4107;DHT22;21906;50.812;7.132;2022-12-18T03:08:44;-3274.10;66.50
4107;DHT22;21906;50.812;7.132;2022-12-18T03:11:12;-3274.10;66.60
4107;DHT22;21906;50.812;7.132;2022-12-18T03:13:46;-3274.00;67.10
4107;DHT22;21906;50.812;7.132;2022-12-18T03:16:20;-3274.00;67.00
4107;DHT22;21906;50.812;7.132;2022-12-18T03:19:06;-3274.00;66.90
4107;DHT22;21906;50.812;7.132;2022-12-18T03:21:40;-3274.10;66.90
4107;DHT22;21906;50.812;7.132;2022-12-18T03:24:09;-3274.10;66.80
4107;DHT22;21906;50.812;7.132;2022-12-18T03:26:37;-3274.00;66.90
4107;DHT22;21906;50.812;7.132;2022-12-18T03:31:54;-3274.20;66.40
4107;DHT22;21906;50.812;7.132;2022-12-18T03:34:29;-3274.10;66.70
4107;DHT22;21906;50.812;7.132;2022-12-18T03:36:55;-3274.10;66.60
4107;DHT22;21906;50.812;7.132;2022-12-18T03:39:21;-3274.00;67.00
4107;DHT22;21906;50.812;7.132;2022-12-18T03:41:52;-3274.00;66.60
4107;DHT22;21906;50.812;7.132;2022-12-18T03:47:30;-3273.90;67.00
4107;DHT22;21906;50.812;7.132;2022-12-18T03:50:03;-3273.80;67.10
4107;DHT22;21906;50.812;7.132;2022-12-18T03:52:40;-3273.80;67.30
4107;DHT22;21906;50.812;7.132;2022-12-18T03:55:08;-3273.70;67.50
4107;DHT22;21906;50.812;7.132;2022-12-18T03:57:35;-3273.70;67.60
4107;DHT22;21906;50.812;7.132;2022-12-18T04:00:11;-3273.80;67.50
4107;DHT22;21906;50.812;7.132;2022-12-18T04:02:42;-3273.70;67.50
4107;DHT22;21906;50.812;7.132;2022-12-18T04:05:10;-3273.50;67.90
4107;DHT22;21906;50.812;7.132;2022-12-18T04:07:37;-3273.60;67.80
4107;DHT22;21906;50.812;7.132;2022-12-18T04:10:06;-3273.50;67.70
4107;DHT22;21906;50.812;7.132;2022-12-18T04:12:32;-3273.60;67.80
4107;DHT22;21906;50.812;7.132;2022-12-18T04:14:58;-3273.60;67.50
4107;DHT22;21906;50.812;7.132;2022-12-18T04:17:24;-3273.50;67.40
4107;DHT22;21906;50.812;7.132;2022-12-18T04:19:50;-3273.60;67.90
4107;DHT22;21906;50.812;7.132;2022-12-18T04:22:16;-3273.70;67.40
4107;DHT22;21906;50.812;7.132;2022-12-18T04:24:41;-3273.70;67.00
4107;DHT22;21906;50.812;7.132;2022-12-18T04:27:07;-3273.70;66.90
4107;DHT22;21906;50.812;7.132;2022-12-18T04:29:33;-3273.80;66.90
4107;DHT22;21906;50.812;7.132;2022-12-18T04:31:58;-3273.80;66.70
4107;DHT22;21906;50.812;7.132;2022-12-18T04:34:24;-3273.80;66.80
4107;DHT22;21906;50.812;7.132;2022-12-18T04:36:50;-3273.80;66.60
4107;DHT22;21906;50.812;7.132;2022-12-18T04:39:18;-3273.80;66.40
4107;DHT22;21906;50.812;7.132;2022-12-18T04:41:44;-3273.60;66.30
4107;DHT22;21906;50.812;7.132;2022-12-18T04:44:09;-3273.70;66.60
4107;DHT22;21906;50.812;7.132;2022-12-18T04:46:35;-3273.70;66.60
4107;DHT22;21906;50.812;7.132;2022-12-18T04:49:01;-3273.80;66.50
4107;DHT22;21906;50.812;7.132;2022-12-18T04:51:26;-3273.70;66.50
4107;DHT22;21906;50.812;7.132;2022-12-18T04:53:53;-3273.70;66.50
4107;DHT22;21906;50.812;7.132;2022-12-18T04:56:18;-3273.80;66.40
4107;DHT22;21906;50.812;7.132;2022-12-18T04:58:44;-3273.70;66.50
4107;DHT22;21906;50.812;7.132;2022-12-18T05:01:12;-3273.70;66.70
4107;DHT22;21906;50.812;7.132;2022-12-18T05:03:38;-3273.70;66.70
4107;DHT22;21906;50.812;7.132;2022-12-18T05:06:05;-3273.50;67.10
4107;DHT22;21906;50.812;7.132;2022-12-18T05:08:31;-3273.40;67.40
4107;DHT22;21906;50.812;7.132;2022-12-18T05:11:04;-3273.60;67.50
4107;DHT22;21906;50.812;7.132;2022-12-18T05:13:32;-3273.60;67.30
4107;DHT22;21906;50.812;7.132;2022-12-18T05:15:58;-3273.60;67.40
4107;DHT22;21906;50.812;7.132;2022-12-18T05:18:24;-3273.50;67.70
4107;DHT22;21906;50.812;7.132;2022-12-18T05:20:53;-3273.50;67.90
4107;DHT22;21906;50.812;7.132;2022-12-18T05:23:20;-3273.60;67.80
4107;DHT22;21906;50.812;7.132;2022-12-18T05:25:53;-3273.40;68.10
4107;DHT22;21906;50.812;7.132;2022-12-18T05:28:20;-3273.40;68.40
4107;DHT22;21906;50.812;7.132;2022-12-18T05:30:54;-3273.40;68.50
4107;DHT22;21906;50.812;7.132;2022-12-18T05:33:21;-3273.50;68.20
4107;DHT22;21906;50.812;7.132;2022-12-18T05:35:51;-3273.50;68.00
4107;DHT22;21906;50.812;7.132;2022-12-18T05:38:18;-3273.50;67.90
4107;DHT22;21906;50.812;7.132;2022-12-18T05:40:43;-3273.60;67.80
4107;DHT22;21906;50.812;7.132;2022-12-18T05:43:10;-3273.60;67.80
4107;DHT22;21906;50.812;7.132;2022-12-18T05:45:39;-3273.40;68.10
4107;DHT22;21906;50.812;7.132;2022-12-18T05:48:05;-3273.60;67.90
4107;DHT22;21906;50.812;7.132;2022-12-18T05:50:36;-3273.60;67.80
4107;DHT22;21906;50.812;7.132;2022-12-18T05:53:03;-3273.70;67.80
4107;DHT22;21906;50.812;7.132;2022-12-18T05:55:32;-3273.60;67.90
4107;DHT22;21906;50.812;7.132;2022-12-18T05:57:58;-3273.50;68.20
4107;DHT22;21906;50.812;7.132;2022-12-18T06:00:24;-3273.70;68.00
4107;DHT22;21906;50.812;7.132;2022-12-18T06:02:50;-3273.70;67.60
4107;DHT22;21906;50.812;7.132;2022-12-18T06:05:15;-3273.60;67.80
4107;DHT22;21906;50.812;7.132;2022-12-18T06:07:41;-3273.60;68.40
4107;DHT22;21906;50.812;7.132;2022-12-18T06:10:07;-3273.80;68.00
4107;DHT22;21906;50.812;7.132;2022-12-18T06:12:32;-3273.80;67.90
4107;DHT22;21906;50.812;7.132;2022-12-18T06:15:01;-3273.80;68.00
4107;DHT22;21906;50.812;7.132;2022-12-18T06:17:31;-3273.80;67.80
4107;DHT22;21906;50.812;7.132;2022-12-18T06:19:57;-3273.90;67.80
4107;DHT22;21906;50.812;7.132;2022-12-18T06:22:23;-3274.00;67.50
4107;DHT22;21906;50.812;7.132;2022-12-18T06:24:48;-3274.00;67.30
4107;DHT22;21906;50.812;7.132;2022-12-18T06:27:14;-3273.90;67.20
4107;DHT22;21906;50.812;7.132;2022-12-18T06:29:40;-3274.00;67.20
4107;DHT22;21906;50.812;7.132;2022-12-18T06:32:06;-3274.00;66.90
4107;DHT22;21906;50.812;7.132;2022-12-18T06:34:32;-3274.00;66.80
4107;DHT22;21906;50.812;7.132;2022-12-18T06:36:58;-3274.10;66.70
4107;DHT22;21906;50.812;7.132;2022-12-18T06:39:24;-3274.10;66.70
4107;DHT22;21906;50.812;7.132;2022-12-18T06:41:49;-3274.10;66.60
4107;DHT22;21906;50.812;7.132;2022-12-18T06:44:15;-3274.00;66.30
4107;DHT22;21906;50.812;7.132;2022-12-18T06:46:41;-3274.10;66.50
4107;DHT22;21906;50.812;7.132;2022-12-18T06:49:06;-3274.00;66.30
4107;DHT22;21906;50.812;7.132;2022-12-18T06:51:34;-3274.10;66.40
4107;DHT22;21906;50.812;7.132;2022-12-18T06:54:00;-3274.00;66.50
4107;DHT22;21906;50.812;7.132;2022-12-18T06:56:26;-3274.10;66.40
4107;DHT22;21906;50.812;7.132;2022-12-18T06:58:55;-3274.10;66.30
4107;DHT22;21906;50.812;7.132;2022-12-18T07:01:21;-3274.00;66.30
4107;DHT22;21906;50.812;7.132;2022-12-18T07:03:57;-3274.00;66.30
4107;DHT22;21906;50.812;7.132;2022-12-18T07:06:25;-3273.90;66.30
4107;DHT22;21906;50.812;7.132;2022-12-18T07:08:52;-3274.00;66.40
4107;DHT22;21906;50.812;7.132;2022-12-18T07:11:19;-3274.00;66.30
4107;DHT22;21906;50.812;7.132;2022-12-18T07:13:45;-3273.90;66.30
4107;DHT22;21906;50.812;7.132;2022-12-18T07:16:13;-3273.90;66.20
4107;DHT22;21906;50.812;7.132;2022-12-18T07:18:39;-3273.90;66.30
4107;DHT22;21906;50.812;7.132;2022-12-18T07:21:10;-3273.90;66.50
4107;DHT22;21906;50.812;7.132;2022-12-18T07:23:36;-3273.90;66.60
4107;DHT22;21906;50.812;7.132;2022-12-18T07:26:12;-3273.80;66.60
4107;DHT22;21906;50.812;7.132;2022-12-18T07:28:39;-3273.80;66.60
4107;DHT22;21906;50.812;7.132;2022-12-18T07:31:06;-3273.90;66.40
4107;DHT22;21906;50.812;7.132;2022-12-18T07:33:33;-3273.80;66.40
4107;DHT22;21906;50.812;7.132;2022-12-18T07:36:03;-3273.80;66.40
4107;DHT22;21906;50.812;7.132;2022-12-18T07:38:30;-3273.80;66.40
4107;DHT22;21906;50.812;7.132;2022-12-18T07:41:01;-3273.80;66.60
4107;DHT22;21906;50.812;7.132;2022-12-18T07:43:27;-3273.80;66.60
4107;DHT22;21906;50.812;7.132;2022-12-18T07:45:52;-3273.80;66.70
4107;DHT22;21906;50.812;7.132;2022-12-18T07:48:18;-3273.90;66.70
4107;DHT22;21906;50.812;7.132;2022-12-18T07:50:44;-3273.80;66.90
4107;DHT22;21906;50.812;7.132;2022-12-18T07:53:09;-3273.80;67.20
4107;DHT22;21906;50.812;7.132;2022-12-18T07:55:35;-3273.90;67.50
4107;DHT22;21906;50.812;7.132;2022-12-18T07:58:05;-3273.80;68.50
4107;DHT22;21906;50.812;7.132;2022-12-18T08:00:31;-3273.70;69.00
4107;DHT22;21906;50.812;7.132;2022-12-18T08:02:57;-3273.80;69.00
4107;DHT22;21906;50.812;7.132;2022-12-18T08:05:23;-3273.90;68.90
4107;DHT22;21906;50.812;7.132;2022-12-18T08:07:49;-3274.00;69.00
4107;DHT22;21906;50.812;7.132;2022-12-18T08:10:15;-3273.90;69.10
4107;DHT22;21906;50.812;7.132;2022-12-18T08:12:41;-3273.90;69.30
4107;DHT22;21906;50.812;7.132;2022-12-18T08:15:07;-3274.00;69.30
4107;DHT22;21906;50.812;7.132;2022-12-18T08:17:33;-3274.00;69.30
4107;DHT22;21906;50.812;7.132;2022-12-18T08:19:58;-3273.90;69.60
4107;DHT22;21906;50.812;7.132;2022-12-18T08:22:24;-3274.10;69.40
4107;DHT22;21906;50.812;7.132;2022-12-18T08:24:50;-3274.10;69.60
4107;DHT22;21906;50.812;7.132;2022-12-18T08:27:15;-3274.10;69.90
4107;DHT22;21906;50.812;7.132;2022-12-18T08:29:41;-3274.10;69.80
4107;DHT22;21906;50.812;7.132;2022-12-18T08:32:07;-3274.10;69.90
4107;DHT22;21906;50.812;7.132;2022-12-18T08:34:33;-3274.20;69.90
4107;DHT22;21906;50.812;7.132;2022-12-18T08:36:58;-3274.20;69.70
4107;DHT22;21906;50.812;7.132;2022-12-18T08:39:24;-3274.20;69.60
4107;DHT22;21906;50.812;7.132;2022-12-18T08:41:50;-3274.30;69.60
4107;DHT22;21906;50.812;7.132;2022-12-18T08:44:34;-3274.50;69.40
4107;DHT22;21906;50.812;7.132;2022-12-18T08:47:03;-3274.60;68.60
4107;DHT22;21906;50.812;7.132;2022-12-18T08:49:28;-3274.60;68.60
4107;DHT22;21906;50.812;7.132;2022-12-18T08:51:55;-3274.70;68.40
4107;DHT22;21906;50.812;7.132;2022-12-18T08:54:22;-3274.70;68.30
4107;DHT22;21906;50.812;7.132;2022-12-18T08:56:48;-3274.80;68.30
4107;DHT22;21906;50.812;7.132;2022-12-18T08:59:16;-3274.90;68.20
4107;DHT22;21906;50.812;7.132;2022-12-18T09:01:42;-3274.90;67.70
4107;DHT22;21906;50.812;7.132;2022-12-18T09:04:09;-3274.90;68.10
4107;DHT22;21906;50.812;7.132;2022-12-18T09:06:35;-3275.10;67.90
4107;DHT22;21906;50.812;7.132;2022-12-18T09:09:02;-3275.10;67.50
4107;DHT22;21906;50.812;7.132;2022-12-18T09:11:28;-3275.20;67.30
4107;DHT22;21906;50.812;7.132;2022-12-18T09:13:55;-3275.30;67.30
4107;DHT22;21906;50.812;7.132;2022-12-18T09:16:21;-3275.30;67.30
4107;DHT22;21906;50.812;7.132;2022-12-18T09:18:47;-3275.50;66.70
4107;DHT22;21906;50.812;7.132;2022-12-18T09:21:15;-3275.60;66.60
4107;DHT22;21906;50.812;7.132;2022-12-18T09:23:42;-3275.80;66.20
4107;DHT22;21906;50.812;7.132;2022-12-18T09:26:08;-3275.70;66.10
4107;DHT22;21906;50.812;7.132;2022-12-18T09:28:34;-3275.80;66.20
4107;DHT22;21906;50.812;7.132;2022-12-18T09:31:04;-3275.80;65.80
4107;DHT22;21906;50.812;7.132;2022-12-18T09:33:30;-3275.90;65.90
4107;DHT22;21906;50.812;7.132;2022-12-18T09:35:56;-3276.00;65.70
4107;DHT22;21906;50.812;7.132;2022-12-18T09:38:22;-3276.00;65.80
4107;DHT22;21906;50.812;7.132;2022-12-18T09:40:51;-3276.20;65.60
4107;DHT22;21906;50.812;7.132;2022-12-18T09:43:21;-3276.30;65.20
4107;DHT22;21906;50.812;7.132;2022-12-18T09:45:59;-3276.40;64.90
4107;DHT22;21906;50.812;7.132;2022-12-18T09:48:38;-3276.50;65.00
4107;DHT22;21906;50.812;7.132;2022-12-18T09:51:20;-3276.50;65.10
4107;DHT22;21906;50.812;7.132;2022-12-18T09:53:53;-3276.60;65.00
4107;DHT22;21906;50.812;7.132;2022-12-18T09:56:22;-3276.60;64.80
4107;DHT22;21906;50.812;7.132;2022-12-18T09:58:58;-3276.60;64.80
4107;DHT22;21906;50.812;7.132;2022-12-18T10:01:26;0.00;64.90
4107;DHT22;21906;50.812;7.132;2022-12-18T10:03:53;0.00;64.80
4107;DHT22;21906;50.812;7.132;2022-12-18T10:11:43;0.10;64.00
4107;DHT22;21906;50.812;7.132;2022-12-18T10:17:37;0.30;64.00
4107;DHT22;21906;50.812;7.132;2022-12-18T10:19:59;0.40;63.50
4107;DHT22;21906;50.812;7.132;2022-12-18T10:25:26;0.60;62.80
4107;DHT22;21906;50.812;7.132;2022-12-18T10:27:58;0.60;62.70
4107;DHT22;21906;50.812;7.132;2022-12-18T10:30:26;0.60;62.50
4107;DHT22;21906;50.812;7.132;2022-12-18T10:32:52;0.70;62.70
4107;DHT22;21906;50.812;7.132;2022-12-18T10:35:26;0.90;62.10
4107;DHT22;21906;50.812;7.132;2022-12-18T10:40:51;0.80;61.90
4107;DHT22;21906;50.812;7.132;2022-12-18T10:48:55;1.00;60.90
4107;DHT22;21906;50.812;7.132;2022-12-18T10:51:34;1.10;59.70
4107;DHT22;21906;50.812;7.132;2022-12-18T10:54:16;1.10;60.00
4107;DHT22;21906;50.812;7.132;2022-12-18T10:56:42;1.00;59.60
4107;DHT22;21906;50.812;7.132;2022-12-18T10:59:12;1.10;59.80
4107;DHT22;21906;50.812;7.132;2022-12-18T11:01:51;1.20;59.80
4107;DHT22;21906;50.812;7.132;2022-12-18T11:04:22;1.40;59.30
4107;DHT22;21906;50.812;7.132;2022-12-18T11:06:58;1.40;59.10
4107;DHT22;21906;50.812;7.132;2022-12-18T11:09:28;1.30;58.80
4107;DHT22;21906;50.812;7.132;2022-12-18T11:11:57;1.20;60.60
4107;DHT22;21906;50.812;7.132;2022-12-18T11:14:30;1.40;66.40
4107;DHT22;21906;50.812;7.132;2022-12-18T11:16:58;1.50;66.10
4107;DHT22;21906;50.812;7.132;2022-12-18T11:19:37;1.50;64.60
4107;DHT22;21906;50.812;7.132;2022-12-18T11:22:20;1.70;68.20
4107;DHT22;21906;50.812;7.132;2022-12-18T11:25:03;1.80;63.70
4107;DHT22;21906;50.812;7.132;2022-12-18T11:27:31;1.70;59.10
4107;DHT22;21906;50.812;7.132;2022-12-18T11:30:26;1.60;59.50
4107;DHT22;21906;50.812;7.132;2022-12-18T11:33:19;1.50;59.10
4107;DHT22;21906;50.812;7.132;2022-12-18T11:36:04;1.30;59.10
4107;DHT22;21906;50.812;7.132;2022-12-18T11:38:39;0.90;60.30
4107;DHT22;21906;50.812;7.132;2022-12-18T11:41:15;1.00;60.20
4107;DHT22;21906;50.812;7.132;2022-12-18T11:44:02;1.00;59.70
4107;DHT22;21906;50.812;7.132;2022-12-18T11:46:38;1.10;60.30
4107;DHT22;21906;50.812;7.132;2022-12-18T11:49:15;1.10;60.20
4107;DHT22;21906;50.812;7.132;2022-12-18T11:52:10;1.10;60.10
4107;DHT22;21906;50.812;7.132;2022-12-18T11:54:39;0.90;60.80
4107;DHT22;21906;50.812;7.132;2022-12-18T12:23:35;0.60;62.30
4107;DHT22;21906;50.812;7.132;2022-12-18T12:26:16;0.60;62.50
4107;DHT22;21906;50.812;7.132;2022-12-18T12:31:50;0.50;62.40
4107;DHT22;21906;50.812;7.132;2022-12-18T12:39:42;0.60;62.80
4107;DHT22;21906;50.812;7.132;2022-12-18T12:42:50;0.50;62.70
4107;DHT22;21906;50.812;7.132;2022-12-18T12:51:00;0.60;63.20
4107;DHT22;21906;50.812;7.132;2022-12-18T12:53:32;0.50;63.10
4107;DHT22;21906;50.812;7.132;2022-12-18T12:56:07;0.60;62.70
4107;DHT22;21906;50.812;7.132;2022-12-18T12:59:08;0.70;62.60
4107;DHT22;21906;50.812;7.132;2022-12-18T13:01:44;0.80;62.30
4107;DHT22;21906;50.812;7.132;2022-12-18T13:04:28;0.80;62.40
4107;DHT22;21906;50.812;7.132;2022-12-18T13:07:10;0.80;62.10
4107;DHT22;21906;50.812;7.132;2022-12-18T13:18:21;0.90;61.80
4107;DHT22;21906;50.812;7.132;2022-12-18T13:20:50;0.80;62.40
4107;DHT22;21906;50.812;7.132;2022-12-18T13:25:58;0.90;62.10
4107;DHT22;21906;50.812;7.132;2022-12-18T13:28:51;0.90;62.10
4107;DHT22;21906;50.812;7.132;2022-12-18T13:34:25;0.90;62.30
4107;DHT22;21906;50.812;7.132;2022-12-18T13:39:59;0.90;62.10
4107;DHT22;21906;50.812;7.132;2022-12-18T13:42:36;0.90;61.90
4107;DHT22;21906;50.812;7.132;2022-12-18T13:48:36;0.90;62.40
4107;DHT22;21906;50.812;7.132;2022-12-18T13:51:06;0.90;62.30
4107;DHT22;21906;50.812;7.132;2022-12-18T13:53:44;1.10;62.00
4107;DHT22;21906;50.812;7.132;2022-12-18T13:56:22;1.00;62.20
4107;DHT22;21906;50.812;7.132;2022-12-18T13:59:09;1.00;62.10
4107;DHT22;21906;50.812;7.132;2022-12-18T14:01:57;1.00;62.20
4107;DHT22;21906;50.812;7.132;2022-12-18T14:04:27;1.10;62.20
4107;DHT22;21906;50.812;7.132;2022-12-18T14:07:14;1.10;62.30
4107;DHT22;21906;50.812;7.132;2022-12-18T14:09:48;1.10;61.90
4107;DHT22;21906;50.812;7.132;2022-12-18T14:12:18;1.10;62.10
4107;DHT22;21906;50.812;7.132;2022-12-18T14:15:06;1.20;62.00
4107;DHT22;21906;50.812;7.132;2022-12-18T14:17:36;1.10;62.40
4107;DHT22;21906;50.812;7.132;2022-12-18T14:20:02;1.10;62.70
4107;DHT22;21906;50.812;7.132;2022-12-18T14:22:29;1.00;63.50
4107;DHT22;21906;50.812;7.132;2022-12-18T14:25:29;0.90;63.90
4107;DHT22;21906;50.812;7.132;2022-12-18T14:28:12;0.80;64.20
4107;DHT22;21906;50.812;7.132;2022-12-18T14:30:44;0.80;64.20
4107;DHT22;21906;50.812;7.132;2022-12-18T14:35:39;0.90;64.40
4107;DHT22;21906;50.812;7.132;2022-12-18T14:38:29;0.80;64.20
4107;DHT22;21906;50.812;7.132;2022-12-18T14:41:10;0.60;64.60
4107;DHT22;21906;50.812;7.132;2022-12-18T14:43:37;0.50;65.10
4107;DHT22;21906;50.812;7.132;2022-12-18T14:46:05;0.60;65.10
4107;DHT22;21906;50.812;7.132;2022-12-18T14:48:40;0.60;66.50
4107;DHT22;21906;50.812;7.132;2022-12-18T14:53:47;0.50;65.40
4107;DHT22;21906;50.812;7.132;2022-12-18T14:56:17;0.40;65.40
4107;DHT22;21906;50.812;7.132;2022-12-18T14:58:52;0.50;65.40
4107;DHT22;21906;50.812;7.132;2022-12-18T15:03:56;0.20;65.80
4107;DHT22;21906;50.812;7.132;2022-12-18T15:06:31;0.20;65.80
4107;DHT22;21906;50.812;7.132;2022-12-18T15:08:59;0.10;66.30
4107;DHT22;21906;50.812;7.132;2022-12-18T15:11:33;0.10;66.80
4107;DHT22;21906;50.812;7.132;2022-12-18T15:14:28;0.10;67.40
4107;DHT22;21906;50.812;7.132;2022-12-18T15:16:57;0.20;66.60
4107;DHT22;21906;50.812;7.132;2022-12-18T15:19:34;0.20;66.90
4107;DHT22;21906;50.812;7.132;2022-12-18T15:22:01;0.20;67.10
4107;DHT22;21906;50.812;7.132;2022-12-18T15:24:33;0.40;67.20
4107;DHT22;21906;50.812;7.132;2022-12-18T15:27:02;0.30;66.50
4107;DHT22;21906;50.812;7.132;2022-12-18T15:29:29;0.30;66.80
4107;DHT22;21906;50.812;7.132;2022-12-18T15:32:04;0.40;66.70
4107;DHT22;21906;50.812;7.132;2022-12-18T15:34:31;0.40;66.50
4107;DHT22;21906;50.812;7.132;2022-12-18T15:36:59;0.40;66.80
4107;DHT22;21906;50.812;7.132;2022-12-18T15:39:25;0.50;66.80
4107;DHT22;21906;50.812;7.132;2022-12-18T15:41:54;0.40;66.20
4107;DHT22;21906;50.812;7.132;2022-12-18T15:44:39;0.40;66.70
4107;DHT22;21906;50.812;7.132;2022-12-18T15:47:12;0.40;66.40
4107;DHT22;21906;50.812;7.132;2022-12-18T15:49:38;0.50;66.00
4107;DHT22;21906;50.812;7.132;2022-12-18T15:52:04;0.40;66.40
4107;DHT22;21906;50.812;7.132;2022-12-18T15:54:30;0.40;66.80
4107;DHT22;21906;50.812;7.132;2022-12-18T15:57:14;0.40;67.50
4107;DHT22;21906;50.812;7.132;2022-12-18T15:59:52;0.50;66.30
4107;DHT22;21906;50.812;7.132;2022-12-18T16:02:20;0.60;65.70
4107;DHT22;21906;50.812;7.132;2022-12-18T16:04:48;0.60;65.30
4107;DHT22;21906;50.812;7.132;2022-12-18T16:07:17;0.50;65.50
4107;DHT22;21906;50.812;7.132;2022-12-18T16:09:43;0.50;65.30
4107;DHT22;21906;50.812;7.132;2022-12-18T16:12:21;0.50;65.60
4107;DHT22;21906;50.812;7.132;2022-12-18T16:14:48;0.20;66.00
4107;DHT22;21906;50.812;7.132;2022-12-18T16:17:15;0.20;66.50
4107;DHT22;21906;50.812;7.132;2022-12-18T16:19:44;0.10;66.70
4107;DHT22;21906;50.812;7.132;2022-12-18T16:22:21;0.00;67.10
4107;DHT22;21906;50.812;7.132;2022-12-18T16:24:48;0.10;66.80
4107;DHT22;21906;50.812;7.132;2022-12-18T16:27:13;0.10;67.30
4107;DHT22;21906;50.812;7.132;2022-12-18T16:29:39;0.00;67.00
4107;DHT22;21906;50.812;7.132;2022-12-18T16:32:05;0.00;67.40
4107;DHT22;21906;50.812;7.132;2022-12-18T16:34:32;0.00;67.50
4107;DHT22;21906;50.812;7.132;2022-12-18T16:37:03;0.10;67.50
4107;DHT22;21906;50.812;7.132;2022-12-18T16:39:29;0.20;67.40
4107;DHT22;21906;50.812;7.132;2022-12-18T16:41:56;0.30;66.80
4107;DHT22;21906;50.812;7.132;2022-12-18T16:44:22;0.20;66.80
4107;DHT22;21906;50.812;7.132;2022-12-18T16:46:48;0.20;66.50
4107;DHT22;21906;50.812;7.132;2022-12-18T16:49:16;0.20;66.80
4107;DHT22;21906;50.812;7.132;2022-12-18T16:51:42;0.30;66.80
4107;DHT22;21906;50.812;7.132;2022-12-18T16:54:08;0.20;66.90
4107;DHT22;21906;50.812;7.132;2022-12-18T16:56:34;0.10;67.00
4107;DHT22;21906;50.812;7.132;2022-12-18T16:59:01;0.20;67.10
4107;DHT22;21906;50.812;7.132;2022-12-18T17:01:28;0.20;66.70
4107;DHT22;21906;50.812;7.132;2022-12-18T17:03:59;0.20;67.20
4107;DHT22;21906;50.812;7.132;2022-12-18T17:06:27;0.20;66.90
4107;DHT22;21906;50.812;7.132;2022-12-18T17:09:03;0.20;66.80
4107;DHT22;21906;50.812;7.132;2022-12-18T17:11:31;0.10;67.10
4107;DHT22;21906;50.812;7.132;2022-12-18T17:13:57;0.00;67.30
4107;DHT22;21906;50.812;7.132;2022-12-18T17:16:24;0.10;67.00
4107;DHT22;21906;50.812;7.132;2022-12-18T17:18:52;0.10;67.20
4107;DHT22;21906;50.812;7.132;2022-12-18T17:21:18;0.10;67.10
4107;DHT22;21906;50.812;7.132;2022-12-18T17:23:44;0.00;67.20
4107;DHT22;21906;50.812;7.132;2022-12-18T17:26:11;0.00;67.10
4107;DHT22;21906;50.812;7.132;2022-12-18T17:28:39;0.10;67.20